Time;durP1;ratioP1;P1;durP2;ratioP2;P2;SDS_P1;SDS_P2;PMS_P1;PMS_P2;Temp;Humidity;BMP_temperature;BMP_pressure;BME280_temperature;BME280_humidity;BME280_pressure;Samples;Min_cycle;Max_cycle;Signal;HPM_P1;HPM_P2
2021/09/09 00:00:45;;;;;;;12.52;10.30;;;;;;;17.84;100.00;100036.31;5033810;28;20084;-65
2021/09/09 00:03:29;;;;;;;16.60;10.02;;;;;;;17.84;100.00;100039.00;5033464;28;20463;-65
2021/09/09 00:06:13;;;;;;;12.23;9.75;;;;;;;17.82;100.00;100041.88;5034545;28;20179;-66
2021/09/09 00:08:57;;;;;;;12.80;10.18;;;;;;;17.77;100.00;100038.09;5034111;28;20106;-66
2021/09/09 00:11:41;;;;;;;12.70;9.85;;;;;;;17.74;100.00;100043.91;5034247;28;20076;-66
2021/09/09 00:14:25;;;;;;;16.20;10.50;;;;;;;17.72;100.00;100038.69;5033391;28;20053;-66
2021/09/09 00:17:09;;;;;;;13.18;10.20;;;;;;;17.73;100.00;100031.44;5034346;28;20063;-66
2021/09/09 00:19:53;;;;;;;13.57;10.35;;;;;;;17.72;100.00;100024.41;5032943;28;20103;-66
2021/09/09 00:22:38;;;;;;;13.43;9.98;;;;;;;17.72;100.00;100038.69;5034211;28;20099;-66
2021/09/09 00:25:22;;;;;;;13.57;9.60;;;;;;;17.69;100.00;100030.19;5032887;28;20136;-66
2021/09/09 00:28:05;;;;;;;11.55;10.35;;;;;;;17.65;100.00;100024.34;5034019;28;20183;-66
2021/09/09 00:30:51;;;;;;;16.45;10.63;;;;;;;17.58;100.00;100023.44;5032908;28;20045;-66
2021/09/09 00:33:36;;;;;;;17.02;10.98;;;;;;;17.50;100.00;100017.38;5033977;28;20103;-66
2021/09/09 00:36:20;;;;;;;14.48;10.10;;;;;;;17.45;100.00;100012.56;5032989;28;20099;-66
2021/09/09 00:39:05;;;;;;;12.35;10.00;;;;;;;17.41;100.00;100015.84;5033107;28;20056;-66
2021/09/09 00:41:48;;;;;;;18.38;10.88;;;;;;;17.38;100.00;100022.44;5032801;28;20478;-66
2021/09/09 00:44:32;;;;;;;12.40;10.40;;;;;;;17.33;100.00;100016.78;5018907;28;20075;-65
2021/09/09 00:47:16;;;;;;;14.07;10.15;;;;;;;17.33;100.00;100018.63;5033498;28;20104;-66
2021/09/09 00:50:00;;;;;;;15.02;10.50;;;;;;;17.27;100.00;100024.78;5033522;28;20467;-66
2021/09/09 00:52:47;;;;;;;14.48;9.98;;;;;;;17.25;100.00;100024.13;5033702;28;20103;-66
2021/09/09 00:55:32;;;;;;;13.73;10.48;;;;;;;17.20;100.00;100016.63;5033640;28;20052;-66
2021/09/09 00:58:16;;;;;;;16.38;10.82;;;;;;;17.22;100.00;100009.22;5033332;28;20064;-66
2021/09/09 01:01:01;;;;;;;14.18;10.15;;;;;;;17.22;100.00;100011.06;5032399;28;20615;-66
2021/09/09 01:03:44;;;;;;;12.45;11.00;;;;;;;17.20;100.00;100008.53;5033544;28;20056;-66
2021/09/09 01:06:28;;;;;;;15.43;10.65;;;;;;;17.15;100.00;100016.38;5032282;28;20064;-65
2021/09/09 01:09:12;;;;;;;12.43;10.32;;;;;;;17.11;100.00;100004.31;5032409;28;20119;-66
2021/09/09 01:11:56;;;;;;;13.77;10.80;;;;;;;17.06;100.00;100009.47;5032433;28;20040;-66
2021/09/09 01:14:40;;;;;;;11.77;10.40;;;;;;;17.07;100.00;100008.44;5033226;28;20053;-65
2021/09/09 01:17:24;;;;;;;15.80;11.80;;;;;;;17.07;100.00;100010.28;5033072;28;20142;-65
2021/09/09 01:20:09;;;;;;;13.15;10.13;;;;;;;17.06;100.00;100006.75;5031957;28;20102;-66
2021/09/09 01:22:53;;;;;;;12.77;10.48;;;;;;;17.05;100.00;100010.47;5032614;28;20098;-66
2021/09/09 01:25:37;;;;;;;12.57;10.05;;;;;;;17.04;100.00;100016.06;5032057;28;20428;-65
2021/09/09 01:28:21;;;;;;;12.10;9.98;;;;;;;17.01;100.00;100014.56;5032327;28;20053;-65
2021/09/09 01:31:05;;;;;;;19.23;11.07;;;;;;;16.93;100.00;100017.41;5031844;28;20080;-65
2021/09/09 01:33:54;;;;;;;13.00;9.88;;;;;;;16.90;100.00;100020.44;5031989;28;20099;-66
2021/09/09 01:36:38;;;;;;;14.27;10.30;;;;;;;16.85;100.00;100014.81;5031920;28;20130;-65
2021/09/09 01:39:23;;;;;;;11.75;9.98;;;;;;;16.79;100.00;100004.81;5031890;28;20418;-66
2021/09/09 01:42:07;;;;;;;14.27;10.52;;;;;;;16.78;100.00;100010.41;5031794;28;20064;-66
2021/09/09 01:44:51;;;;;;;15.65;10.48;;;;;;;16.72;100.00;100009.28;5018475;28;20084;-65
2021/09/09 01:47:35;;;;;;;13.77;10.73;;;;;;;16.70;100.00;100008.63;5017915;28;20088;-66
2021/09/09 01:50:19;;;;;;;;;;;;;;;16.68;100.00;100010.69;5033208;28;20047;-66
2021/09/09 01:53:03;;;;;;;16.97;11.27;;;;;;;16.67;100.00;100002.81;5033068;28;19920;-66
2021/09/09 01:55:47;;;;;;;12.07;10.30;;;;;;;16.63;100.00;100005.03;5032206;28;20052;-66
2021/09/09 01:58:31;;;;;;;13.52;10.70;;;;;;;16.60;100.00;100009.97;5032240;28;20091;-66
2021/09/09 02:01:16;;;;;;;13.52;10.18;;;;;;;16.54;100.00;100006.19;5032562;28;20060;-66
2021/09/09 02:04:01;;;;;;;12.60;9.20;;;;;;;16.45;100.00;100011.81;5031971;28;20048;-66
2021/09/09 02:06:48;;;;;;;15.10;10.32;;;;;;;16.39;100.00;100008.03;5032633;28;20140;-66
2021/09/09 02:09:32;;;;;;;15.02;11.07;;;;;;;16.35;100.00;100014.78;5032840;28;20064;-65
2021/09/09 02:12:16;;;;;;;14.52;11.18;;;;;;;16.32;100.00;100004.41;5017652;28;20060;-66
2021/09/09 02:15:00;;;;;;;12.20;10.82;;;;;;;16.28;100.00;100005.78;5031702;28;20199;-65
2021/09/09 02:17:46;;;;;;;12.57;10.45;;;;;;;16.26;100.00;100009.72;5032757;28;20128;-66
2021/09/09 02:20:29;;;;;;;15.40;11.20;;;;;;;16.23;100.00;100000.16;5017733;28;20052;-66
2021/09/09 02:23:13;;;;;;;14.43;10.80;;;;;;;16.22;100.00;100001.19;5031890;28;20048;-66
2021/09/09 02:25:57;;;;;;;13.35;10.48;;;;;;;16.20;100.00;100003.22;5035443;28;20050;-66
2021/09/09 02:28:42;;;;;;;14.50;10.07;;;;;;;16.18;100.00;100005.22;5036328;28;20065;-65
2021/09/09 02:31:26;;;;;;;14.70;11.05;;;;;;;16.14;100.00;99997.72;5035324;28;20051;-66
2021/09/09 02:34:10;;;;;;;17.85;11.77;;;;;;;16.13;100.00;99993.38;5036260;28;20100;-66
2021/09/09 02:36:54;;;;;;;13.82;11.05;;;;;;;16.12;100.00;99994.41;5036267;28;20048;-66
2021/09/09 02:39:42;;;;;;;16.92;11.45;;;;;;;16.12;100.00;99995.25;5034807;28;20088;-66
2021/09/09 02:42:26;;;;;;;14.77;10.68;;;;;;;16.10;100.00;99999.97;5034789;28;20179;-66
2021/09/09 02:45:11;;;;;;;14.35;10.43;;;;;;;16.10;100.00;99997.28;5036059;28;20052;-66
2021/09/09 02:47:55;;;;;;;18.63;11.40;;;;;;;16.07;100.00;100004.88;5020984;28;20055;-66
2021/09/09 02:50:39;;;;;;;14.77;11.77;;;;;;;16.02;100.00;100000.06;5034640;28;20180;-66
2021/09/09 02:53:25;;;;;;;16.83;12.30;;;;;;;15.97;100.00;99999.78;5035931;28;20095;-66
2021/09/09 02:56:09;;;;;;;17.58;11.27;;;;;;;15.95;100.00;100004.50;5035570;28;20134;-66
2021/09/09 02:58:53;;;;;;;;;;;;;;;15.93;100.00;99997.63;5036165;28;20052;-66
2021/09/09 03:01:38;;;;;;;15.73;11.73;;;;;;;15.93;100.00;99994.94;5034515;28;20295;-66
2021/09/09 03:04:22;;;;;;;15.82;11.27;;;;;;;15.93;100.00;99994.94;5035431;28;20466;-65
2021/09/09 03:07:06;;;;;;;17.02;10.65;;;;;;;15.89;100.00;99994.50;5035665;28;20055;-66
2021/09/09 03:09:50;;;;;;;13.32;10.98;;;;;;;15.87;100.00;99990.31;5035550;28;20469;-66
2021/09/09 03:12:34;;;;;;;13.35;11.07;;;;;;;15.85;100.00;99992.38;5035320;28;20044;-66
2021/09/09 03:15:21;;;;;;;13.32;11.18;;;;;;;15.87;100.00;99993.00;5034797;28;20049;-66
2021/09/09 03:18:05;;;;;;;15.02;10.73;;;;;;;15.83;100.00;99989.00;5034446;28;20060;-66
2021/09/09 03:20:49;;;;;;;13.18;11.00;;;;;;;15.80;100.00;99997.44;5035001;28;20591;-66
2021/09/09 03:23:33;;;;;;;14.43;11.23;;;;;;;15.78;100.00;99992.25;5035622;28;20072;-66
2021/09/09 03:26:17;;;;;;;19.15;11.13;;;;;;;15.74;100.00;99985.56;5034066;28;20101;-66
2021/09/09 03:29:00;;;;;;;15.32;11.75;;;;;;;15.72;100.00;99986.78;5034856;28;20049;-66
2021/09/09 03:31:44;;;;;;;13.82;10.93;;;;;;;15.72;100.00;99997.53;5085980;22;20126;-68
2021/09/09 03:34:28;;;;;;;16.05;12.32;;;;;;;15.69;100.00;99988.00;5073951;28;20513;-68
2021/09/09 03:37:12;;;;;;;14.30;11.02;;;;;;;15.68;100.00;99980.91;5073491;28;20094;-68
2021/09/09 03:39:56;;;;;;;17.83;11.60;;;;;;;15.67;100.00;99983.81;5073995;28;20078;-68
2021/09/09 03:42:41;;;;;;;14.95;11.38;;;;;;;15.65;100.00;99975.91;5053811;28;20135;-68
2021/09/09 03:45:25;;;;;;;14.02;11.60;;;;;;;15.66;100.00;99982.16;5053834;28;20077;-68
2021/09/09 03:48:09;;;;;;;17.92;11.73;;;;;;;15.67;100.00;99984.63;5067865;28;20039;-67
2021/09/09 03:50:53;;;;;;;15.70;11.27;;;;;;;15.67;100.00;99983.81;5054675;28;20048;-68
2021/09/09 03:53:36;;;;;;;16.77;11.93;;;;;;;15.67;100.00;99984.63;5067602;28;20059;-68
2021/09/09 03:56:21;;;;;;;20.20;12.60;;;;;;;15.65;100.00;99981.28;5054063;28;20095;-69
2021/09/09 03:59:05;;;;;;;17.25;11.48;;;;;;;15.63;100.00;99987.03;5039457;28;20052;-68
2021/09/09 04:01:49;;;;;;;18.63;11.93;;;;;;;15.61;100.00;99987.22;5053091;28;20051;-67
2021/09/09 04:04:33;;;;;;;16.48;12.77;;;;;;;15.55;100.00;99990.66;5054488;28;20518;-68
2021/09/09 04:07:17;;;;;;;20.67;14.18;;;;;;;15.53;100.00;99989.16;5067530;28;20184;-68
2021/09/09 04:10:01;;;;;;;17.58;12.85;;;;;;;15.50;100.00;99990.34;5054151;28;20098;-68
2021/09/09 04:12:45;;;;;;;15.48;12.00;;;;;;;15.50;100.00;99990.34;5067187;28;20048;-68
2021/09/09 04:15:29;;;;;;;16.80;11.57;;;;;;;15.50;100.00;99986.84;5053340;28;20124;-68
2021/09/09 04:18:13;;;;;;;14.00;11.20;;;;;;;15.46;100.00;99990.91;5067479;28;20060;-68
2021/09/09 04:20:56;;;;;;;14.75;10.77;;;;;;;15.43;100.00;99991.25;5054014;28;20144;-68
2021/09/09 04:23:40;;;;;;;18.15;13.05;;;;;;;15.42;100.00;99990.41;5067171;28;20048;-68
2021/09/09 04:26:24;;;;;;;16.80;12.43;;;;;;;15.41;100.00;99991.44;5053917;28;20178;-69
2021/09/09 04:29:08;;;;;;;17.13;11.45;;;;;;;15.39;100.00;99996.16;5067106;28;20075;-68
2021/09/09 04:31:52;;;;;;;17.75;12.45;;;;;;;15.37;100.00;99997.34;5066601;28;20123;-68
2021/09/09 04:34:36;;;;;;;18.02;12.75;;;;;;;15.35;100.00;99989.50;5052932;28;20474;-68
2021/09/09 04:37:20;;;;;;;18.52;13.05;;;;;;;15.36;100.00;99990.31;5066808;28;20060;-68
2021/09/09 04:40:04;;;;;;;18.02;12.95;;;;;;;15.36;100.00;99998.38;5053552;28;20206;-69
2021/09/09 04:42:49;;;;;;;18.50;13.30;;;;;;;15.36;100.00;99993.00;5038987;28;20130;-69
2021/09/09 04:45:33;;;;;;;16.88;13.02;;;;;;;15.37;100.00;99994.66;5066582;28;20106;-68
2021/09/09 04:48:17;;;;;;;16.40;12.70;;;;;;;15.33;100.00;99988.00;5052573;28;20087;-67
2021/09/09 04:51:01;;;;;;;18.13;13.38;;;;;;;15.30;100.00;99996.41;5053814;28;20043;-67
2021/09/09 04:53:45;;;;;;;22.02;14.63;;;;;;;15.31;100.00;99990.03;5066750;28;20079;-67
2021/09/09 04:56:29;;;;;;;18.30;13.45;;;;;;;15.31;100.00;99992.72;5053332;28;20048;-67
2021/09/09 04:59:13;;;;;;;20.98;13.75;;;;;;;15.35;100.00;99985.97;5052688;28;20051;-68
2021/09/09 05:01:57;;;;;;;;;;;;;;;15.39;100.00;99992.66;5038596;28;20522;-68
2021/09/09 05:04:41;;;;;;;14.68;12.05;;;;;;;15.44;100.00;99999.16;5052160;28;19963;-69
2021/09/09 05:07:25;;;;;;;16.67;12.60;;;;;;;15.45;100.00;99998.13;5052410;28;20115;-68
2021/09/09 05:10:09;;;;;;;17.27;12.88;;;;;;;15.49;100.00;99995.94;5052319;28;20056;-68
2021/09/09 05:12:53;;;;;;;15.38;12.55;;;;;;;15.56;100.00;100007.59;5052315;28;20052;-69
2021/09/09 05:15:37;;;;;;;18.08;12.75;;;;;;;15.59;100.00;100016.13;5052544;28;20103;-68
2021/09/09 05:18:21;;;;;;;16.55;11.80;;;;;;;15.63;100.00;100013.91;5052268;28;20048;-68
2021/09/09 05:21:05;;;;;;;13.57;10.85;;;;;;;15.65;100.00;100013.53;5051855;28;20530;-68
2021/09/09 05:23:49;;;;;;;17.60;11.10;;;;;;;15.69;100.00;100014.88;5052174;28;20072;-68
2021/09/09 05:26:33;;;;;;;19.30;12.90;;;;;;;15.73;100.00;100021.53;5053203;28;20047;-68
2021/09/09 05:29:17;;;;;;;15.57;11.48;;;;;;;15.79;100.00;100015.44;5053060;28;20059;-68
2021/09/09 05:32:04;;;;;;;17.85;12.77;;;;;;;15.85;100.00;100024.63;5051625;28;20044;-68
2021/09/09 05:34:48;;;;;;;15.50;12.23;;;;;;;15.88;100.00;100019.69;5051738;28;20426;-68
2021/09/09 05:37:32;;;;;;;15.07;11.65;;;;;;;15.96;100.00;100022.28;5052063;28;20534;-68
2021/09/09 05:40:15;;;;;;;16.65;12.85;;;;;;;16.04;100.00;100029.44;5066039;28;20124;-69
2021/09/09 05:42:59;;;;;;;18.17;13.13;;;;;;;16.10;100.00;100034.09;5065916;28;20138;-68
2021/09/09 05:45:43;;;;;;;21.40;12.60;;;;;;;16.16;100.00;100026.09;5052917;28;20052;-68
2021/09/09 05:48:27;;;;;;;13.18;10.77;;;;;;;16.25;100.00;100037.59;5051955;28;20063;-69
2021/09/09 05:51:11;;;;;;;16.35;11.63;;;;;;;16.31;100.00;100032.34;5065758;28;20051;-68
2021/09/09 05:53:55;;;;;;;17.50;11.18;;;;;;;16.38;100.00;100033.28;5051630;28;20091;-68
2021/09/09 05:56:39;;;;;;;18.27;12.77;;;;;;;16.43;100.00;100028.19;5066308;28;20052;-69
2021/09/09 05:59:23;;;;;;;13.93;11.55;;;;;;;16.49;100.00;100029.28;5068018;28;20555;-68
2021/09/09 06:02:15;;;;;;;15.75;12.02;;;;;;;16.53;100.00;100034.09;5055406;28;20101;-69
2021/09/09 06:04:59;;;;;;;13.40;11.18;;;;;;;16.57;100.00;100037.25;5055778;28;20040;-69
2021/09/09 06:07:44;;;;;;;17.38;12.73;;;;;;;16.63;100.00;100041.88;5056767;28;20110;-68
2021/09/09 06:10:27;;;;;;;16.27;12.13;;;;;;;16.69;100.00;100047.34;5055613;28;20043;-69
2021/09/09 06:13:11;;;;;;;17.80;12.77;;;;;;;16.70;100.00;100046.31;5069426;28;20047;-68
2021/09/09 06:15:55;;;;;;;16.35;12.13;;;;;;;16.76;100.00;100042.03;5056372;28;20060;-68
2021/09/09 06:18:39;;;;;;;13.55;11.50;;;;;;;16.83;100.00;100043.81;5069577;28;20047;-69
2021/09/09 06:21:23;;;;;;;17.52;13.15;;;;;;;16.93;100.00;100047.03;5055203;28;20051;-68
2021/09/09 06:24:07;;;;;;;17.27;11.95;;;;;;;17.00;100.00;100039.84;5056306;28;20056;-69
2021/09/09 06:26:51;;;;;;;20.10;13.50;;;;;;;17.17;100.00;100040.41;5055309;28;20087;-68
2021/09/09 06:29:35;;;;;;;20.30;13.60;;;;;;;17.20;100.00;100035.50;5055250;28;20515;-68
2021/09/09 06:32:19;;;;;;;18.60;13.98;;;;;;;17.27;100.00;100032.84;5054718;28;20127;-69
2021/09/09 06:35:04;;;;;;;25.65;21.00;;;;;;;17.34;100.00;100031.91;5054964;28;20102;-69
2021/09/09 06:37:48;;;;;;;36.65;25.52;;;;;;;17.49;100.00;100035.38;5055084;28;20059;-68
2021/09/09 06:40:32;;;;;;;29.52;25.90;;;;;;;17.55;100.00;100031.94;5056091;28;20064;-69
2021/09/09 06:43:16;;;;;;;36.58;25.98;;;;;;;17.70;100.00;100029.97;5055830;28;20076;-69
2021/09/09 06:46:00;;;;;;;36.45;26.65;;;;;;;17.84;100.00;100028.22;5054914;28;20056;-68
2021/09/09 06:48:44;;;;;;;34.05;24.02;;;;;;;17.93;100.00;100027.84;5069006;28;20044;-66
2021/09/09 06:51:28;;;;;;;30.63;22.05;;;;;;;18.09;100.00;100027.56;5054753;28;20079;-69
2021/09/09 06:54:12;;;;;;;24.65;20.30;;;;;;;18.22;100.00;100043.00;5069023;28;20571;-69
2021/09/09 06:56:56;;;;;;;26.17;18.08;;;;;;;18.38;100.00;100046.25;5054547;28;20048;-69
2021/09/09 06:59:39;;;;;;;24.92;17.70;;;;;;;18.54;100.00;100037.81;5069095;28;20043;-69
2021/09/09 07:02:24;;;;;;;19.67;15.60;;;;;;;18.74;100.00;100041.44;5054310;28;20076;-66
2021/09/09 07:05:08;;;;;;;19.63;16.23;;;;;;;18.89;100.00;100042.13;5055867;28;20048;-69
2021/09/09 07:07:52;;;;;;;22.13;14.82;;;;;;;18.97;100.00;100045.47;5055503;28;20545;-70
2021/09/09 07:10:36;;;;;;;21.02;15.05;;;;;;;19.15;100.00;100044.88;5068474;28;20052;-69
2021/09/09 07:13:21;;;;;;;18.27;14.85;;;;;;;19.22;100.00;100054.72;5068625;28;20094;-69
2021/09/09 07:16:05;;;;;;;18.98;15.10;;;;;;;19.37;100.00;100051.84;5054393;28;20502;-68
2021/09/09 07:18:49;;;;;;;19.55;14.60;;;;;;;19.47;100.00;100050.41;5068308;28;20044;-69
2021/09/09 07:21:33;;;;;;;18.80;14.13;;;;;;;19.58;100.00;100054.38;5054164;28;20506;-69
2021/09/09 07:24:17;;;;;;;17.30;13.65;;;;;;;19.74;100.00;100070.16;5055253;28;20060;-69
2021/09/09 07:27:02;;;;;;;17.63;13.75;;;;;;;19.89;100.00;100062.69;5068203;28;20052;-69
2021/09/09 07:29:45;;;;;;;15.98;13.05;;;;;;;20.07;98.36;100060.19;5055193;28;20063;-69
2021/09/09 07:32:29;;;;;;;16.67;12.77;;;;;;;20.22;97.37;100075.16;5054751;28;20063;-69
2021/09/09 07:35:13;;;;;;;20.83;13.38;;;;;;;20.45;96.17;100072.00;5068433;28;20128;-69
2021/09/09 07:37:57;;;;;;;15.73;12.30;;;;;;;20.64;94.51;100085.47;5054263;28;20096;-69
2021/09/09 07:40:42;;;;;;;15.23;12.13;;;;;;;20.84;93.52;100086.25;5053663;28;20126;-69
2021/09/09 07:43:25;;;;;;;16.23;11.85;;;;;;;20.95;92.51;100080.19;5067957;28;20052;-69
2021/09/09 07:46:09;;;;;;;15.15;11.48;;;;;;;21.12;90.90;100085.97;5054771;28;20047;-69
2021/09/09 07:48:53;;;;;;;15.50;10.95;;;;;;;21.31;89.78;100085.88;5054774;28;20136;-68
2021/09/09 07:51:37;;;;;;;14.60;11.77;;;;;;;21.40;87.49;100082.66;5053391;28;20143;-69
2021/09/09 07:54:21;;;;;;;;;;;;;;;21.53;87.65;100079.03;5068271;28;20063;-69
2021/09/09 07:57:05;;;;;;;12.80;10.37;;;;;;;21.65;84.61;100083.59;5039604;28;19978;-69
2021/09/09 07:59:49;;;;;;;13.18;10.05;;;;;;;21.74;81.26;100085.00;5054324;28;20047;-69
2021/09/09 08:02:33;;;;;;;;;;;;;;;21.86;81.59;100088.66;5053918;28;20130;-69
2021/09/09 08:05:17;;;;;;;12.50;9.77;;;;;;;21.91;80.79;100094.22;5053472;28;19965;-68
2021/09/09 08:08:01;;;;;;;10.63;9.35;;;;;;;22.10;78.81;100090.53;5054353;28;20510;-69
2021/09/09 08:10:45;;;;;;;10.55;8.63;;;;;;;22.26;77.58;100089.97;5053523;28;20550;-69
2021/09/09 08:13:29;;;;;;;10.60;8.35;;;;;;;22.50;75.71;100096.44;5067396;28;20505;-69
2021/09/09 08:16:13;;;;;;;10.98;8.07;;;;;;;22.71;72.12;100091.41;5052990;28;20052;-70
2021/09/09 08:18:57;;;;;;;;;;;;;;;22.90;71.96;100095.78;5054820;28;20094;-69
2021/09/09 08:21:41;;;;;;;10.00;8.17;;;;;;;23.09;70.54;100102.84;5052284;28;19924;-70
2021/09/09 08:24:25;;;;;;;9.65;7.35;;;;;;;23.22;68.15;100091.84;5052770;28;20277;-69
2021/09/09 08:27:09;;;;;;;14.65;7.57;;;;;;;23.41;66.65;100088.00;5067114;28;20067;-70
2021/09/09 08:29:52;;;;;;;9.27;7.47;;;;;;;23.48;67.09;100080.59;5067124;28;20084;-69
2021/09/09 08:32:37;;;;;;;11.32;7.80;;;;;;;23.67;66.02;100082.19;5052671;28;20044;-70
2021/09/09 08:35:20;;;;;;;12.38;8.05;;;;;;;23.58;65.59;100074.56;5066744;28;20144;-69
2021/09/09 08:38:04;;;;;;;8.95;7.60;;;;;;;23.69;66.07;100080.06;5052867;28;20067;-70
2021/09/09 08:40:51;;;;;;;16.38;8.18;;;;;;;23.73;66.36;100078.53;5066946;28;20179;-69
2021/09/09 08:43:35;;;;;;;12.93;8.10;;;;;;;23.80;66.36;100083.84;5052504;28;20102;-69
2021/09/09 08:46:19;;;;;;;10.90;7.88;;;;;;;24.18;65.33;100093.31;5066787;28;20051;-69
2021/09/09 08:49:03;;;;;;;13.45;7.88;;;;;;;24.44;64.33;100087.38;5066851;28;20122;-69
2021/09/09 08:51:47;;;;;;;;;;;;;;;24.79;62.40;100090.94;5066851;28;20466;-70
2021/09/09 08:54:32;;;;;;;10.88;7.80;;;;;;;24.86;62.48;100097.06;5052277;28;20290;-69
2021/09/09 08:57:20;;;;;;;11.32;7.78;;;;;;;24.84;61.51;100097.34;5066684;28;20083;-69
2021/09/09 09:00:05;;;;;;;11.27;8.00;;;;;;;25.19;60.87;100102.69;5066607;28;20098;-70
2021/09/09 09:02:51;;;;;;;10.73;7.65;;;;;;;25.50;60.34;100099.50;5052346;28;20039;-69
2021/09/09 09:05:37;;;;;;;9.48;7.50;;;;;;;26.03;58.64;100094.50;5066489;28;20113;-70
2021/09/09 09:08:21;;;;;;;8.77;7.72;;;;;;;26.26;58.48;100106.06;5066304;28;20051;-70
2021/09/09 09:11:05;;;;;;;;;;;;;;;26.06;59.12;100104.94;5052431;28;20051;-70
2021/09/09 09:13:49;;;;;;;10.60;7.70;;;;;;;25.76;59.19;100123.47;5037898;28;19966;-70
2021/09/09 09:16:33;;;;;;;13.57;7.15;;;;;;;25.43;61.23;100120.69;5052347;28;20051;-70
2021/09/09 09:19:20;;;;;;;12.18;7.80;;;;;;;25.54;60.53;100122.53;5066123;28;20071;-69
2021/09/09 09:22:11;;;;;;;9.45;7.30;;;;;;;25.79;59.92;100125.72;5066273;28;20420;-70
2021/09/09 09:24:55;;;;;;;13.85;7.72;;;;;;;25.84;59.79;100118.44;5053163;28;20052;-70
2021/09/09 09:27:48;;;;;;;9.25;7.50;;;;;;;26.06;59.77;100129.50;5066042;28;20079;-70
2021/09/09 09:31:00;;;;;;;12.18;6.88;;;;;;;25.76;61.25;100128.94;5051745;28;20060;-70
2021/09/09 09:33:47;;;;;;;10.82;7.53;;;;;;;25.76;60.38;100148.06;5067510;28;20128;-70
2021/09/09 09:36:33;;;;;;;15.88;7.75;;;;;;;26.31;59.03;100108.06;5056138;28;20114;-69
2021/09/09 09:39:19;;;;;;;10.63;7.22;;;;;;;27.09;57.19;100104.84;5057432;28;20047;-70
2021/09/09 09:42:05;;;;;;;15.77;7.55;;;;;;;27.64;55.83;100110.97;5069836;28;20047;-70
2021/09/09 09:44:49;;;;;;;9.70;6.75;;;;;;;28.29;53.84;100106.13;5069987;28;20510;-70
2021/09/09 09:47:34;;;;;;;;;;;;;;;28.35;52.14;100107.03;5056211;28;20127;-70
2021/09/09 09:50:22;;;;;;;7.32;5.45;;;;;;;27.62;53.63;100121.34;5041960;28;19940;-70
2021/09/09 09:53:15;;;;;;;11.35;5.82;;;;;;;27.13;55.66;100111.47;5069674;28;20091;-70
2021/09/09 09:55:58;;;;;;;8.70;5.43;;;;;;;27.11;56.83;100115.53;5056586;28;20052;-70
2021/09/09 09:58:42;;;;;;;;;;;;;;;27.41;55.17;100111.28;5070475;28;20178;-69
2021/09/09 10:01:27;;;;;;;8.63;5.10;;;;;;;27.50;55.32;100103.44;5055573;28;19951;-70
2021/09/09 10:04:14;;;;;;;11.77;5.10;;;;;;;27.26;55.17;100113.84;5055571;28;20128;-69
2021/09/09 10:06:58;;;;;;;6.72;5.00;;;;;;;27.98;53.43;100117.94;5055718;28;20051;-70
2021/09/09 10:09:42;;;;;;;;;;;;;;;27.15;55.47;100112.06;5070445;28;20048;-70
2021/09/09 10:12:26;;;;;;;6.97;4.93;;;;;;;26.82;57.15;100130.47;5055322;28;19919;-69
2021/09/09 10:15:12;;;;;;;6.63;4.28;;;;;;;26.25;58.94;100120.00;5069564;28;20086;-70
2021/09/09 10:17:56;;;;;;;7.78;4.40;;;;;;;26.16;58.81;100116.81;5055266;28;20087;-70
2021/09/09 10:20:44;;;;;;;6.40;4.60;;;;;;;25.70;60.77;100122.56;5069325;28;20047;-68
2021/09/09 10:23:28;;;;;;;8.27;3.95;;;;;;;25.46;61.71;100120.19;5069266;28;20118;-69
2021/09/09 10:26:26;;;;;;;8.95;4.43;;;;;;;25.92;60.73;100122.72;5055332;28;20044;-69
2021/09/09 10:29:41;;;;;;;11.07;4.20;;;;;;;28.46;54.02;100108.75;5055274;28;20609;-69
2021/09/09 10:32:28;;;;;;;5.28;4.40;;;;;;;30.37;47.77;100100.88;5055741;28;20047;-69
2021/09/09 10:35:19;;;;;;;9.35;4.22;;;;;;;30.13;47.51;100110.81;5055891;28;20473;-70
2021/09/09 10:38:12;;;;;;;9.43;4.10;;;;;;;30.81;44.38;100123.94;5054905;28;20588;-70
2021/09/09 10:40:57;;;;;;;6.32;4.03;;;;;;;30.70;45.33;100101.16;5055939;28;20048;-70
2021/09/09 10:43:44;;;;;;;4.47;3.17;;;;;;;30.42;45.33;100109.16;5068991;28;20564;-70
2021/09/09 10:46:31;;;;;;;5.05;3.60;;;;;;;30.64;45.72;100131.72;5055603;28;20052;-70
2021/09/09 10:49:18;;;;;;;6.75;3.65;;;;;;;30.88;45.46;100106.06;5054680;28;20084;-70
2021/09/09 10:52:04;;;;;;;7.13;3.97;;;;;;;30.80;44.49;100119.53;5054536;28;20519;-69
2021/09/09 10:55:05;;;;;;;11.60;3.60;;;;;;;31.35;44.42;100102.88;5055890;28;20051;-70
2021/09/09 10:57:49;;;;;;;8.82;4.00;;;;;;;32.01;42.61;100087.56;5054806;28;20060;-70
2021/09/09 11:01:05;;;;;;;3.80;3.40;;;;;;;33.16;40.23;100095.53;5055484;28;20052;-70
2021/09/09 11:03:49;;;;;;;6.75;3.75;;;;;;;32.43;41.26;100087.75;5054718;28;20129;-70
2021/09/09 11:06:34;;;;;;;7.22;4.00;;;;;;;33.46;39.24;100092.38;5040535;28;20048;-70
2021/09/09 11:09:18;;;;;;;6.63;3.90;;;;;;;34.22;37.89;100095.66;5055249;28;20166;-69
2021/09/09 11:12:04;;;;;;;6.68;3.85;;;;;;;35.00;36.85;100097.25;5068653;28;20043;-70
2021/09/09 11:14:47;;;;;;;5.63;3.78;;;;;;;35.76;34.73;100104.81;5068513;28;20052;-70
2021/09/09 11:17:31;;;;;;;8.45;3.58;;;;;;;35.83;34.46;100106.03;5068601;28;20052;-71
2021/09/09 11:20:15;;;;;;;5.68;3.40;;;;;;;36.10;34.35;100091.22;5053984;28;20079;-70
2021/09/09 11:23:10;;;;;;;6.32;3.40;;;;;;;35.80;34.69;100109.41;5054248;28;20047;-68
2021/09/09 11:25:54;;;;;;;5.47;3.47;;;;;;;35.40;34.74;100107.53;5068239;28;20052;-68
2021/09/09 11:28:38;;;;;;;7.80;3.45;;;;;;;35.53;35.25;100100.31;5068224;28;20052;-70
2021/09/09 11:31:30;;;;;;;4.15;3.58;;;;;;;33.85;37.80;100118.66;5053644;28;20044;-70
2021/09/09 11:34:20;;;;;;;6.45;3.72;;;;;;;33.99;38.37;100102.97;5068206;28;20503;-71
2021/09/09 11:37:04;;;;;;;5.75;3.35;;;;;;;34.59;36.91;100101.91;5067887;28;20040;-70
2021/09/09 11:39:48;;;;;;;4.70;3.65;;;;;;;33.13;40.06;100094.16;5068073;28;20048;-69
2021/09/09 11:42:32;;;;;;;9.82;4.20;;;;;;;32.41;42.18;100107.38;5054816;28;20147;-70
2021/09/09 11:45:19;;;;;;;4.68;3.40;;;;;;;31.78;42.65;100121.38;5053877;28;20055;-70
2021/09/09 11:48:04;;;;;;;5.20;3.50;;;;;;;31.96;43.22;100120.69;5054723;28;20561;-69
2021/09/09 11:50:48;;;;;;;4.38;3.00;;;;;;;32.17;43.01;100116.69;5067976;28;20060;-70
2021/09/09 11:53:32;;;;;;;6.80;3.15;;;;;;;32.72;41.09;100110.69;5053828;28;20553;-70
2021/09/09 11:56:20;;;;;;;4.80;2.88;;;;;;;33.54;38.66;100106.34;5066942;28;20068;-70
2021/09/09 11:59:08;;;;;;;4.65;3.10;;;;;;;33.94;37.76;100116.84;5053357;28;20052;-70
2021/09/09 12:01:58;;;;;;;4.85;3.15;;;;;;;32.11;41.59;100124.16;5053261;28;20051;-69
2021/09/09 12:04:42;;;;;;;6.15;3.08;;;;;;;32.37;41.35;100122.06;5067589;28;20040;-70
2021/09/09 12:07:29;;;;;;;3.65;2.92;;;;;;;31.83;42.39;100127.69;5067337;28;20064;-70
2021/09/09 12:10:20;;;;;;;6.28;3.15;;;;;;;31.00;45.16;100125.84;5067180;28;20087;-70
2021/09/09 12:13:08;;;;;;;3.40;3.10;;;;;;;31.67;43.19;100128.03;5067346;28;20083;-70
2021/09/09 12:15:52;;;;;;;4.38;3.38;;;;;;;32.91;40.52;100133.66;5066754;28;20051;-70
2021/09/09 12:18:36;;;;;;;5.13;3.58;;;;;;;31.64;42.49;100134.13;5052964;28;20447;-70
2021/09/09 12:21:24;;;;;;;7.80;3.78;;;;;;;31.17;44.59;100123.56;5053975;28;20110;-70
2021/09/09 12:24:11;;;;;;;4.80;3.40;;;;;;;31.91;43.48;100124.31;5066752;28;20044;-68
2021/09/09 12:27:04;;;;;;;8.95;3.92;;;;;;;33.74;39.60;100111.63;5039056;28;20047;-70
2021/09/09 12:29:48;;;;;;;5.93;3.50;;;;;;;34.67;37.14;100120.59;5053057;28;20136;-70
2021/09/09 12:32:32;;;;;;;4.28;3.75;;;;;;;35.46;35.91;100122.94;5052777;28;20124;-69
2021/09/09 12:35:19;;;;;;;4.45;3.70;;;;;;;34.09;36.86;100130.47;5052839;28;20048;-70